DAUG/GHA METAR and TAF weather

Enter ICAO airport designator
Station Type Date Time Source
DAUG METAR 2018/04/21 20:00 UTC NOAA

DAUG 212000Z 09006KT CAVOK 23/03 Q1019


Station Type Date Time Source
DAUG Decoded METAR 2018/04/21 20:00 UTC NOAA

Ghardaia, Algeria (DAUG) 32-23N 003-49E 450M
Apr 21, 2018 - 04:00 PM EDT / 2018.04.21 2000 UTC
Wind: from the E (090 degrees) at 7 MPH (6 KT):0
Visibility: greater than 7 mile(s):0
Temperature: 73 F (23 C)
Dew Point: 37 F (3 C)
Relative Humidity: 26%
Pressure (altimeter): 30.09 in. Hg (1019 hPa)
ob: DAUG 212000Z 09006KT CAVOK 23/03 Q1019
cycle: 20

Station Type Date Time Source
DAUG TAF 2018/04/21 18:33 UTC NOAA

TAF DAUG 211700Z 2118/2218 10010KT 9000 NSC PROB30 2120/2202 5000 HZ
BECMG 2122/2202 VRB02KT
BECMG 2208/2212 10012KT


Example: see airport list